Time;durP1;ratioP1;P1;durP2;ratioP2;P2;SDS_P1;SDS_P2;PMS_P1;PMS_P2;Temp;Humidity;BMP_temperature;BMP_pressure;BME280_temperature;BME280_humidity;BME280_pressure;Samples;Min_cycle;Max_cycle;Signal;HPM_P1;HPM_P2
2022/05/11 00:01:29;;;;;;;13.35;7.15;;;;;;;12.02;100.00;101222.91;5003565;28;20036;-68
2022/05/11 00:03:56;;;;;;;13.10;6.78;;;;;;;12.03;100.00;101220.25;5008796;28;20056;-69
2022/05/11 00:06:26;;;;;;;13.57;6.63;;;;;;;12.05;100.00;101213.06;5005738;28;20045;-69
2022/05/11 00:08:53;;;;;;;14.30;7.43;;;;;;;12.06;100.00;101216.59;5007252;28;20445;-68
2022/05/11 00:11:18;;;;;;;15.13;8.30;;;;;;;12.06;100.00;101204.19;5027665;28;20061;-69
2022/05/11 00:13:44;;;;;;;14.60;7.05;;;;;;;12.09;100.00;101203.16;5007361;28;20535;-69
2022/05/11 00:16:10;;;;;;;16.33;7.72;;;;;;;12.10;100.00;101199.59;5022232;28;20090;-69
2022/05/11 00:18:36;;;;;;;15.88;7.40;;;;;;;12.11;100.00;101196.00;5012417;28;20032;-69
2022/05/11 00:21:02;;;;;;;16.13;7.40;;;;;;;12.14;100.00;101195.00;5027503;28;20086;-69
2022/05/11 00:23:28;;;;;;;12.95;6.93;;;;;;;12.15;100.00;101196.72;5029046;28;20040;-68
2022/05/11 00:25:53;;;;;;;14.52;7.28;;;;;;;12.15;100.00;101194.91;5005317;28;20042;-69
2022/05/11 00:28:18;;;;;;;13.27;6.90;;;;;;;12.17;100.00;101197.50;5026227;28;20132;-68
2022/05/11 00:30:44;;;;;;;14.60;6.90;;;;;;;12.20;100.00;101192.06;5029120;28;20029;-69
2022/05/11 00:33:13;;;;;;;11.70;6.28;;;;;;;12.21;100.00;101186.66;5026777;28;20163;-69
2022/05/11 00:35:39;;;;;;;15.57;7.03;;;;;;;12.23;100.00;101186.59;5005415;28;20148;-69
2022/05/11 00:38:05;;;;;;;13.27;7.00;;;;;;;12.24;100.00;101187.47;5022457;28;20442;-68
2022/05/11 00:40:32;;;;;;;15.77;6.90;;;;;;;12.26;100.00;101173.19;5028282;28;20031;-69
2022/05/11 00:42:58;;;;;;;15.13;7.25;;;;;;;12.26;100.00;101173.19;5028426;28;21849;-69
2022/05/11 00:45:24;;;;;;;12.75;6.45;;;;;;;12.28;100.00;101171.34;5028106;28;21869;-69
2022/05/11 00:47:55;;;;;;;15.43;6.30;;;;;;;12.29;100.00;101169.53;5004356;28;20063;-68
2022/05/11 00:50:30;;;;;;;11.30;6.35;;;;;;;12.30;100.00;101168.59;5027889;28;20036;-69
2022/05/11 00:53:09;;;;;;;17.98;6.40;;;;;;;12.32;100.00;101164.09;5005386;28;20040;-69
2022/05/11 00:55:38;;;;;;;15.07;6.15;;;;;;;12.33;100.00;101163.16;5010778;28;20083;-69
2022/05/11 00:58:09;;;;;;;12.15;6.05;;;;;;;12.33;100.00;101161.34;5009125;28;20111;-69
2022/05/11 01:00:36;;;;;;;13.20;6.65;;;;;;;12.35;100.00;101167.44;5025741;28;20495;-69
2022/05/11 01:03:05;;;;;;;11.55;5.63;;;;;;;12.36;100.00;101160.31;5027917;28;20033;-69
2022/05/11 01:05:30;;;;;;;10.75;6.13;;;;;;;12.37;100.00;101154.09;5010164;28;20045;-69
2022/05/11 01:07:57;;;;;;;12.68;5.90;;;;;;;12.39;100.00;101152.22;5029597;28;20454;-69
2022/05/11 01:10:24;;;;;;;12.00;5.65;;;;;;;12.40;100.00;101150.41;5010543;28;20037;-69
2022/05/11 01:12:51;;;;;;;13.00;5.88;;;;;;;12.39;100.00;101138.09;5026797;28;20480;-69
2022/05/11 01:15:18;;;;;;;13.50;6.30;;;;;;;12.40;100.00;101145.09;5008222;28;20036;-69
2022/05/11 01:17:44;;;;;;;9.68;5.70;;;;;;;12.38;100.00;101153.16;5009910;28;20120;-69
2022/05/11 01:20:14;;;;;;;11.02;5.40;;;;;;;12.36;100.00;101145.28;5010057;28;20033;-69
2022/05/11 01:23:14;;;;;;;10.25;5.40;;;;;;;12.36;100.00;101149.72;5009305;28;20033;-69
2022/05/11 01:25:39;;;;;;;10.38;5.40;;;;;;;12.33;100.00;101147.22;5015447;28;20040;-68
2022/05/11 01:28:11;;;;;;;15.20;5.93;;;;;;;12.31;100.00;101139.31;5031551;28;20107;-69
2022/05/11 01:30:41;;;;;;;7.30;4.68;;;;;;;12.29;100.00;101141.19;5031968;28;20061;-69
2022/05/11 01:33:07;;;;;;;10.15;6.00;;;;;;;12.29;100.00;101140.31;5009402;28;20024;-68
2022/05/11 01:36:04;;;;;;;12.68;5.75;;;;;;;12.27;100.00;101139.53;5030564;28;20033;-69
2022/05/11 01:38:43;;;;;;;11.30;5.35;;;;;;;12.25;100.00;101129.00;5033041;28;20764;-68
2022/05/11 01:41:29;;;;;;;11.80;5.47;;;;;;;12.24;100.00;101129.09;5006579;28;20052;-69
2022/05/11 01:43:55;;;;;;;7.50;4.85;;;;;;;12.23;100.00;101133.53;5031541;28;20064;-69
2022/05/11 01:46:21;;;;;;;10.40;4.70;;;;;;;12.22;100.00;101127.34;5010806;28;20715;-69
2022/05/11 01:48:47;;;;;;;9.27;5.03;;;;;;;12.22;100.00;101126.50;5026513;28;20130;-69
2022/05/11 01:51:15;;;;;;;9.00;5.03;;;;;;;12.22;100.00;101123.84;5029385;28;20589;-69
2022/05/11 01:53:41;;;;;;;8.38;4.88;;;;;;;12.21;100.00;101119.47;5029991;28;20112;-69
2022/05/11 01:56:09;;;;;;;11.25;4.72;;;;;;;12.22;100.00;101113.22;5011181;28;20123;-70
2022/05/11 01:58:36;;;;;;;9.80;4.95;;;;;;;12.22;100.00;101121.19;5029063;28;20566;-68
2022/05/11 02:01:01;;;;;;;7.75;4.25;;;;;;;12.24;100.00;101115.81;5031801;28;20060;-69
2022/05/11 02:03:28;;;;;;;12.68;4.55;;;;;;;12.24;100.00;101114.00;5012028;28;20036;-69
2022/05/11 02:08:40;;;;;;;7.35;4.00;;;;;;;12.26;100.00;101103.31;5015720;28;20048;-69
2022/05/11 02:11:06;;;;;;;8.23;4.00;;;;;;;12.27;100.00;101110.34;4995990;28;20032;-69
2022/05/11 02:13:33;;;;;;;9.10;4.45;;;;;;;12.28;100.00;101104.09;5030814;28;20495;-68
2022/05/11 02:15:58;;;;;;;9.88;4.20;;;;;;;12.29;100.00;101104.03;5030483;28;20123;-70
2022/05/11 02:18:24;;;;;;;6.80;4.10;;;;;;;12.30;100.00;101105.75;5011301;28;20782;-69
2022/05/11 02:20:50;;;;;;;8.80;4.15;;;;;;;12.32;100.00;101109.19;5007925;28;20036;-68
2022/05/11 02:23:18;;;;;;;7.85;4.00;;;;;;;12.32;100.00;101106.53;5009183;28;20041;-69
2022/05/11 02:25:45;;;;;;;6.90;3.70;;;;;;;12.33;100.00;101110.88;5032850;28;20049;-69
2022/05/11 02:28:12;;;;;;;7.38;4.28;;;;;;;12.33;100.00;101110.03;5029911;28;20037;-68
2022/05/11 02:30:38;;;;;;;6.95;3.70;;;;;;;12.34;100.00;101106.44;5009640;28;20136;-69
2022/05/11 02:33:04;;;;;;;9.18;4.22;;;;;;;12.34;100.00;101104.66;5013120;28;20052;-69
2022/05/11 02:35:29;;;;;;;6.95;3.90;;;;;;;12.34;100.00;101104.66;5030943;28;20037;-69
2022/05/11 02:37:59;;;;;;;8.32;3.85;;;;;;;12.34;100.00;101093.19;5008458;28;20518;-68
2022/05/11 02:40:26;;;;;;;7.80;3.97;;;;;;;12.35;100.00;101106.38;5030209;28;20510;-69
2022/05/11 02:42:55;;;;;;;7.75;3.53;;;;;;;12.35;100.00;101103.72;5029317;28;20069;-69
2022/05/11 02:45:21;;;;;;;5.53;3.33;;;;;;;12.39;100.00;101108.88;5007540;28;20037;-67
2022/05/11 02:47:48;;;;;;;7.70;4.25;;;;;;;12.40;100.00;101116.78;5025307;28;20041;-68
2022/05/11 02:50:17;;;;;;;6.43;3.92;;;;;;;12.42;100.00;101095.47;5023492;28;20033;-67
2022/05/11 02:52:43;;;;;;;7.45;4.57;;;;;;;12.41;100.00;101091.94;5031115;28;20551;-67
2022/05/11 02:55:09;;;;;;;6.68;4.10;;;;;;;12.43;100.00;101099.84;5029142;28;20039;-67
2022/05/11 02:57:34;;;;;;;6.13;4.20;;;;;;;12.44;100.00;101096.25;5030888;28;20036;-68
2022/05/11 03:00:00;;;;;;;9.15;4.32;;;;;;;12.44;100.00;101096.25;5027733;28;20052;-68
2022/05/11 03:02:26;;;;;;;8.23;4.55;;;;;;;12.45;100.00;101090.88;5016620;28;20033;-67
2022/05/11 03:04:52;;;;;;;7.55;4.30;;;;;;;12.46;100.00;101089.06;5004909;28;20126;-67
2022/05/11 03:07:18;;;;;;;7.95;4.10;;;;;;;12.47;100.00;101074.84;5000798;28;21242;-67
2022/05/11 03:09:44;;;;;;;7.55;4.25;;;;;;;12.47;100.00;101074.84;5024321;28;20040;-67
2022/05/11 03:12:11;;;;;;;8.05;4.05;;;;;;;12.47;100.00;101074.84;5007423;28;20091;-67
2022/05/11 03:14:38;;;;;;;10.98;4.53;;;;;;;12.46;100.00;101068.69;5024745;28;20037;-67
2022/05/11 03:17:04;;;;;;;8.32;3.67;;;;;;;12.46;100.00;101060.72;5003261;28;20033;-67
2022/05/11 03:19:30;;;;;;;9.32;4.00;;;;;;;12.46;100.00;101062.50;5024410;28;20037;-67
2022/05/11 03:21:56;;;;;;;9.05;4.05;;;;;;;12.46;100.00;101063.38;5025072;28;20052;-68
2022/05/11 03:24:21;;;;;;;8.80;4.18;;;;;;;12.47;100.00;101050.94;5026289;28;20033;-68
2022/05/11 03:26:47;;;;;;;6.13;3.60;;;;;;;12.46;100.00;101049.22;5018823;28;20086;-68
2022/05/11 03:29:13;;;;;;;6.40;3.40;;;;;;;12.46;100.00;101046.56;5015136;28;20037;-68
2022/05/11 03:31:39;;;;;;;6.70;3.60;;;;;;;12.46;100.00;101043.91;5024523;28;20060;-68
2022/05/11 03:36:51;;;;;;;9.27;4.25;;;;;;;12.46;100.00;101036.81;5013911;28;20037;-67
2022/05/11 03:39:17;;;;;;;9.32;3.85;;;;;;;12.47;100.00;101037.66;5006406;28;20525;-68
2022/05/11 03:41:45;;;;;;;7.82;3.50;;;;;;;12.47;100.00;101038.53;5026018;28;20071;-68
2022/05/11 03:44:11;;;;;;;6.63;3.22;;;;;;;12.47;100.00;101040.31;5018026;28;20171;-68
2022/05/11 03:46:37;;;;;;;5.68;3.40;;;;;;;12.45;100.00;101034.22;4973144;28;20380;-69
2022/05/11 03:49:03;;;;;;;6.47;3.53;;;;;;;12.44;100.00;101021.91;5025763;28;20099;-68
2022/05/11 03:51:28;;;;;;;7.10;3.28;;;;;;;12.44;100.00;101022.78;5001532;28;20064;-68
2022/05/11 03:53:54;;;;;;;7.07;3.28;;;;;;;12.44;100.00;101032.53;5003514;28;21884;-68
2022/05/11 03:56:19;;;;;;;4.78;3.28;;;;;;;12.44;100.00;101027.22;5024705;28;20940;-68
2022/05/11 03:58:45;;;;;;;6.30;3.50;;;;;;;12.43;100.00;101025.50;5021682;28;20736;-68
2022/05/11 04:01:12;;;;;;;9.68;3.72;;;;;;;12.45;100.00;101029.78;5027465;28;21291;-69
2022/05/11 04:03:38;;;;;;;8.20;3.72;;;;;;;12.45;100.00;101023.59;5013918;28;20048;-68
2022/05/11 04:06:04;;;;;;;7.10;3.50;;;;;;;12.45;100.00;101027.13;5030336;28;20619;-68
2022/05/11 04:08:29;;;;;;;5.45;3.38;;;;;;;12.46;100.00;101020.88;5011774;28;20047;-68
2022/05/11 04:10:55;;;;;;;5.13;3.25;;;;;;;12.48;100.00;101018.16;5029345;28;20037;-68
2022/05/11 04:13:20;;;;;;;5.72;3.17;;;;;;;12.47;100.00;101021.72;5029564;28;20048;-68
2022/05/11 04:15:50;;;;;;;5.75;3.00;;;;;;;12.48;100.00;101010.19;5008438;28;20037;-68
2022/05/11 04:18:16;;;;;;;7.15;3.80;;;;;;;12.50;100.00;101018.94;5031330;28;20045;-68
2022/05/11 04:20:42;;;;;;;8.45;3.20;;;;;;;12.52;100.00;101024.19;5024038;28;20037;-68
2022/05/11 04:23:08;;;;;;;5.63;3.38;;;;;;;12.54;100.00;101019.63;5029044;28;20064;-68
2022/05/11 04:25:33;;;;;;;7.00;3.00;;;;;;;12.55;100.00;101022.22;5027707;28;20065;-68
2022/05/11 04:27:58;;;;;;;10.35;3.40;;;;;;;12.57;100.00;101023.00;5030091;28;20025;-68
2022/05/11 04:30:26;;;;;;;9.00;3.67;;;;;;;12.58;100.00;101014.09;5028749;28;20479;-68
2022/05/11 04:32:53;;;;;;;7.97;3.20;;;;;;;12.60;100.00;101017.50;4996104;28;20120;-68
2022/05/11 04:35:18;;;;;;;8.25;3.58;;;;;;;12.63;100.00;101022.69;5027978;28;20025;-68
2022/05/11 04:37:44;;;;;;;10.27;3.47;;;;;;;12.64;100.00;101020.88;5013548;28;20037;-67
2022/05/11 04:40:11;;;;;;;9.27;3.72;;;;;;;12.66;100.00;101018.13;5027763;28;20039;-68
2022/05/11 04:42:37;;;;;;;7.03;3.72;;;;;;;12.69;100.00;101016.19;5007166;28;20699;-68
2022/05/11 04:45:04;;;;;;;6.05;3.47;;;;;;;12.71;100.00;101006.34;5022197;28;20128;-68
2022/05/11 04:47:29;;;;;;;7.18;3.15;;;;;;;12.73;100.00;101000.94;5010630;28;20021;-68
2022/05/11 04:49:56;;;;;;;7.53;3.78;;;;;;;12.76;100.00;101003.47;5028475;28;20039;-68
2022/05/11 04:52:22;;;;;;;5.93;2.95;;;;;;;12.78;100.00;101009.53;5026565;28;20021;-68
2022/05/11 04:54:48;;;;;;;6.57;2.88;;;;;;;12.81;100.00;100996.09;5010417;28;20543;-68
2022/05/11 04:57:15;;;;;;;6.55;3.13;;;;;;;12.84;100.00;100997.72;5030353;28;20029;-69
2022/05/11 04:59:41;;;;;;;5.30;3.05;;;;;;;12.85;100.00;100991.50;5034346;28;20041;-68
2022/05/11 05:02:15;;;;;;;7.00;3.17;;;;;;;12.86;100.00;100983.44;5016460;28;20150;-68
2022/05/11 05:04:41;;;;;;;6.82;2.92;;;;;;;12.89;100.00;100996.56;5034794;28;20041;-68
2022/05/11 05:07:06;;;;;;;5.68;2.50;;;;;;;12.90;100.00;100998.28;5034162;28;20641;-67
2022/05/11 05:09:32;;;;;;;7.57;3.00;;;;;;;12.92;100.00;100982.25;5016694;28;20037;-68
2022/05/11 05:11:57;;;;;;;7.97;3.00;;;;;;;12.96;100.00;100990.94;5033350;28;20036;-67
2022/05/11 05:14:23;;;;;;;7.60;2.67;;;;;;;12.97;100.00;100998.78;5008709;28;20175;-69
2022/05/11 05:16:48;;;;;;;7.30;2.80;;;;;;;12.99;100.00;100990.75;5008037;28;20036;-68
2022/05/11 05:19:15;;;;;;;5.32;2.92;;;;;;;13.01;100.00;100994.16;5009726;28;20029;-68
2022/05/11 05:21:40;;;;;;;7.95;2.50;;;;;;;13.03;100.00;100994.97;5014848;28;20039;-68
2022/05/11 05:24:06;;;;;;;8.77;3.28;;;;;;;13.03;100.00;100987.84;5032608;28;20033;-68
2022/05/11 05:26:32;;;;;;;5.75;2.85;;;;;;;13.03;100.00;100976.38;5027925;28;20131;-68
2022/05/11 05:31:42;;;;;;;6.40;2.60;;;;;;;13.11;100.00;100976.81;5031733;28;20039;-68
2022/05/11 05:34:07;;;;;;;5.30;3.08;;;;;;;13.15;100.00;100991.66;5013351;28;20025;-68
2022/05/11 05:36:38;;;;;;;6.35;2.88;;;;;;;13.20;100.00;100996.72;5030546;28;20477;-68
2022/05/11 05:39:05;;;;;;;7.07;2.53;;;;;;;13.26;99.73;100998.19;4991935;28;20052;-70
2022/05/11 05:41:31;;;;;;;6.65;2.72;;;;;;;13.28;99.46;101004.25;5024233;28;20028;-68
2022/05/11 05:43:56;;;;;;;8.52;2.60;;;;;;;13.30;98.99;101005.91;5028527;28;20037;-68
2022/05/11 05:46:22;;;;;;;8.02;2.78;;;;;;;13.30;98.71;100994.41;5032183;28;20036;-68
2022/05/11 05:48:50;;;;;;;7.35;2.92;;;;;;;13.31;98.71;101002.28;5014201;28;20530;-68
2022/05/11 05:51:16;;;;;;;9.80;2.25;;;;;;;13.30;98.26;101010.38;5030200;28;20061;-68
2022/05/11 05:53:43;;;;;;;9.13;3.20;;;;;;;13.29;97.84;101006.84;5010435;28;20526;-68
2022/05/11 05:56:09;;;;;;;5.30;2.30;;;;;;;13.33;98.05;101015.50;5029735;28;20163;-68
2022/05/11 05:58:36;;;;;;;4.95;2.65;;;;;;;13.35;97.58;101007.47;5028876;28;20040;-68
2022/05/11 06:01:02;;;;;;;8.85;2.60;;;;;;;13.36;96.92;101007.38;5030691;28;20053;-68
2022/05/11 06:03:29;;;;;;;4.28;2.15;;;;;;;13.38;96.99;101008.16;5032544;28;20116;-68
2022/05/11 06:05:54;;;;;;;6.47;2.05;;;;;;;13.40;95.50;100994.78;4993477;28;20029;-68
2022/05/11 06:08:21;;;;;;;4.35;2.15;;;;;;;13.41;95.51;101001.81;5025445;28;20029;-67
2022/05/11 06:10:47;;;;;;;10.13;2.22;;;;;;;13.43;95.17;101003.44;5008532;28;20029;-67
2022/05/11 06:13:14;;;;;;;7.13;2.20;;;;;;;13.47;95.38;100995.31;5020458;28;20392;-69
2022/05/11 06:15:41;;;;;;;4.05;1.70;;;;;;;13.48;94.69;100999.69;5031091;28;21048;-68
2022/05/11 06:18:08;;;;;;;8.00;2.08;;;;;;;13.49;94.56;100998.75;5009749;28;20029;-68
2022/05/11 06:20:34;;;;;;;8.13;1.92;;;;;;;13.50;94.07;100992.50;5026082;28;20033;-68
2022/05/11 06:23:01;;;;;;;4.68;1.80;;;;;;;13.50;93.96;100995.16;5009863;28;20467;-69
2022/05/11 06:25:27;;;;;;;6.78;1.88;;;;;;;13.51;93.88;100991.56;5029873;28;20075;-68
2022/05/11 06:27:53;;;;;;;4.13;2.47;;;;;;;13.52;94.11;100987.94;5032054;28;20115;-68
2022/05/11 06:30:18;;;;;;;4.82;2.00;;;;;;;13.53;94.57;100984.34;5032243;28;20045;-68
2022/05/11 06:32:43;;;;;;;6.75;2.25;;;;;;;13.58;94.81;100979.63;5033311;28;20171;-68
2022/05/11 06:35:09;;;;;;;5.03;1.75;;;;;;;13.61;94.46;100981.25;5032559;28;20167;-68
2022/05/11 06:37:38;;;;;;;5.38;1.73;;;;;;;13.62;93.70;100991.78;5028543;28;20048;-68
2022/05/11 06:40:04;;;;;;;5.60;2.03;;;;;;;13.61;93.52;100979.44;5032165;28;20029;-68
2022/05/11 06:42:30;;;;;;;7.78;1.80;;;;;;;13.66;93.88;100985.38;5015116;28;20738;-68
2022/05/11 06:44:56;;;;;;;4.60;1.98;;;;;;;13.68;93.90;100978.16;5032484;28;20511;-68
2022/05/11 06:47:22;;;;;;;15.38;2.17;;;;;;;13.70;93.27;100976.28;5032467;28;20036;-68
2022/05/11 06:49:47;;;;;;;8.07;2.15;;;;;;;13.73;93.15;100998.31;5028274;28;20561;-68
2022/05/11 06:52:14;;;;;;;3.25;1.60;;;;;;;13.74;93.40;100997.38;5027877;28;20033;-68
2022/05/11 07:00:08;;;;;;;6.40;1.80;;;;;;;13.77;91.72;100997.22;5029959;28;20060;-68
2022/05/11 07:02:37;;;;;;;8.40;1.90;;;;;;;13.77;91.59;100999.88;5013768;28;20128;-68
2022/05/11 07:05:04;;;;;;;8.55;2.20;;;;;;;13.79;91.26;100995.31;5030908;28;20128;-68
2022/05/11 07:07:31;;;;;;;5.55;2.20;;;;;;;13.82;91.88;100995.13;5026572;28;20037;-68
2022/05/11 07:09:56;;;;;;;4.45;2.00;;;;;;;13.87;91.79;101006.38;5025649;28;20056;-69
2022/05/11 07:12:24;;;;;;;6.28;1.90;;;;;;;13.96;91.95;101010.34;5030847;28;21472;-69
2022/05/11 07:14:59;;;;;;;6.65;2.17;;;;;;;14.05;92.34;101006.28;5025705;28;20395;-69
2022/05/11 07:17:33;;;;;;;6.65;2.13;;;;;;;14.04;90.23;100991.25;5025275;28;20029;-70
2022/05/11 07:20:09;;;;;;;5.38;1.67;;;;;;;14.03;90.19;100998.38;5006043;28;20478;-73
2022/05/11 07:22:35;;;;;;;5.57;2.45;;;;;;;14.02;90.40;100980.69;5012115;28;20048;-69
2022/05/11 07:25:01;;;;;;;10.73;2.33;;;;;;;14.08;90.33;100971.50;5029907;28;20220;-69
2022/05/11 07:27:27;;;;;;;6.18;2.03;;;;;;;14.15;91.10;100967.53;5012794;28;20375;-69
2022/05/11 07:29:53;;;;;;;8.70;2.38;;;;;;;14.25;90.54;100973.16;5028772;28;20095;-69
2022/05/11 07:32:20;;;;;;;7.18;1.98;;;;;;;14.35;90.61;100977.00;5028999;28;21491;-69
2022/05/11 07:34:45;;;;;;;4.85;1.90;;;;;;;14.39;89.79;100973.19;5017771;28;20083;-69
2022/05/11 07:37:11;;;;;;;4.93;1.73;;;;;;;14.46;90.05;100976.38;5012079;28;20483;-69
2022/05/11 07:39:37;;;;;;;7.35;2.40;;;;;;;14.50;89.34;100971.72;5011618;28;20049;-70
2022/05/11 07:42:03;;;;;;;5.60;2.20;;;;;;;14.45;89.09;100981.78;5029249;28;20048;-68
2022/05/11 07:44:28;;;;;;;3.80;1.77;;;;;;;14.47;89.57;100975.41;5031004;28;20448;-68
2022/05/11 07:46:54;;;;;;;5.80;2.40;;;;;;;14.55;89.77;100979.41;5030366;28;20051;-68
2022/05/11 07:49:20;;;;;;;5.65;2.20;;;;;;;14.61;89.56;100979.91;5007783;28;20043;-68
2022/05/11 07:51:46;;;;;;;9.75;2.30;;;;;;;14.65;88.55;100986.75;4996219;28;20048;-68
2022/05/11 07:54:14;;;;;;;3.67;2.08;;;;;;;14.68;87.79;100983.06;5013469;28;20037;-68
2022/05/11 08:02:08;;;;;;;6.45;2.00;;;;;;;14.96;87.75;100972.53;5026831;28;20040;-68
2022/05/11 08:04:35;;;;;;;6.68;2.80;;;;;;;14.99;87.06;100977.69;5025437;28;20544;-68
2022/05/11 08:07:00;;;;;;;6.25;1.80;;;;;;;15.10;87.73;100967.22;5024578;28;20243;-68
2022/05/11 08:09:26;;;;;;;9.68;1.77;;;;;;;15.26;87.24;100967.09;5008181;28;20037;-68
2022/05/11 08:11:54;;;;;;;4.35;2.03;;;;;;;15.43;87.67;100975.84;5002279;28;20033;-69
2022/05/11 08:14:20;;;;;;;4.88;1.90;;;;;;;15.54;86.35;100985.81;5022193;28;20034;-68
2022/05/11 08:16:47;;;;;;;5.53;1.92;;;;;;;15.60;85.12;100977.41;5025126;28;20142;-67
2022/05/11 08:19:12;;;;;;;6.40;1.83;;;;;;;15.63;83.61;100973.69;5025795;28;20037;-68
2022/05/11 08:21:38;;;;;;;5.97;1.77;;;;;;;15.67;84.79;100972.53;5008761;28;20057;-69
2022/05/11 08:24:03;;;;;;;5.47;1.70;;;;;;;15.71;83.61;100976.72;5023895;28;20078;-68
2022/05/11 08:26:29;;;;;;;3.63;1.85;;;;;;;15.83;83.32;100975.06;5023881;28;20032;-68
2022/05/11 08:28:55;;;;;;;7.55;2.08;;;;;;;15.94;84.40;100971.69;5024992;28;20398;-69
2022/05/11 08:34:05;;;;;;;5.60;1.65;;;;;;;16.20;82.27;100977.13;5029166;28;20779;-68
2022/05/11 08:36:30;;;;;;;4.35;1.83;;;;;;;16.38;81.73;100980.38;5029222;28;20115;-68
2022/05/11 08:38:58;;;;;;;4.55;2.08;;;;;;;16.51;81.67;100975.06;5029143;28;20152;-69
2022/05/11 08:41:49;;;;;;;7.85;1.80;;;;;;;16.65;80.21;100979.44;5011558;28;20127;-68
2022/05/11 08:44:26;;;;;;;4.75;1.77;;;;;;;16.84;80.89;100971.00;5029019;28;20071;-68
2022/05/11 08:47:06;;;;;;;5.28;1.55;;;;;;;16.93;79.72;100980.19;5010986;28;20048;-69
2022/05/11 08:49:35;;;;;;;7.93;1.98;;;;;;;16.85;76.94;100983.41;5013514;28;20041;-68
2022/05/11 08:52:04;;;;;;;8.55;2.10;;;;;;;16.90;78.32;100981.28;5027070;28;20075;-68
2022/05/11 08:54:49;;;;;;;5.50;1.70;;;;;;;17.13;75.41;100981.50;5011232;28;20033;-68
2022/05/11 08:57:18;;;;;;;9.75;2.22;;;;;;;17.42;77.35;100985.72;5010934;28;20557;-68
2022/05/11 08:59:44;;;;;;;6.32;1.90;;;;;;;17.67;75.36;100978.56;5012719;28;21807;-68
2022/05/11 09:02:19;;;;;;;5.20;1.60;;;;;;;17.72;73.46;100987.97;5022136;28;20046;-68
2022/05/11 09:04:48;;;;;;;4.45;1.73;;;;;;;17.83;76.58;100986.31;5020483;28;20040;-68
2022/05/11 09:07:14;;;;;;;4.93;1.70;;;;;;;17.87;75.42;100975.25;5018543;28;20029;-68
2022/05/11 09:09:40;;;;;;;3.10;1.60;;;;;;;17.89;70.70;100983.19;5008369;28;20383;-68
2022/05/11 09:12:07;;;;;;;6.32;1.95;;;;;;;17.66;72.66;100977.72;5020174;28;20048;-68
2022/05/11 09:14:45;;;;;;;7.82;1.67;;;;;;;17.56;69.65;100979.34;5010265;28;20090;-68
2022/05/11 09:17:34;;;;;;;4.72;1.35;;;;;;;17.38;70.33;100983.25;5000109;28;20346;-68
2022/05/11 09:20:09;;;;;;;2.33;1.15;;;;;;;17.32;72.09;100985.53;5002127;28;20041;-69
2022/05/11 09:22:58;;;;;;;5.25;1.40;;;;;;;17.35;72.21;100985.28;5018608;28;20033;-68
2022/05/11 09:25:30;;;;;;;5.70;1.70;;;;;;;17.70;71.46;100984.53;5019623;28;20564;-66
2022/05/11 09:28:15;;;;;;;7.40;1.67;;;;;;;17.91;69.63;100981.25;4990798;28;20037;-66
2022/05/11 09:31:05;;;;;;;4.93;1.52;;;;;;;18.18;68.59;100980.16;4991958;28;20057;-66
2022/05/11 09:33:40;;;;;;;6.13;1.58;;;;;;;18.26;65.56;100974.25;4992981;28;20584;-66
2022/05/11 09:36:07;;;;;;;4.60;1.27;;;;;;;18.28;69.14;100983.00;4999917;28;20053;-66
2022/05/11 09:38:44;;;;;;;3.67;1.02;;;;;;;18.38;65.75;100983.16;5011877;28;20045;-68
2022/05/11 09:41:14;;;;;;;9.10;1.45;;;;;;;18.61;68.10;100988.59;4991135;28;20550;-70
2022/05/11 09:43:44;;;;;;;1.73;0.90;;;;;;;18.86;66.44;100983.00;5013194;28;20037;-70
2022/05/11 09:46:23;;;;;;;4.57;1.10;;;;;;;19.10;65.67;100992.81;5001225;28;20037;-70
2022/05/11 09:49:15;;;;;;;4.75;1.05;;;;;;;19.30;64.68;100984.13;5011427;28;20095;-71
2022/05/11 09:51:46;;;;;;;3.83;1.20;;;;;;;19.39;64.49;100988.78;5009014;28;20061;-71
2022/05/11 09:54:15;;;;;;;3.28;1.10;;;;;;;19.31;61.58;100988.50;5015738;28;20029;-71
2022/05/11 09:56:53;;;;;;;1.98;0.93;;;;;;;19.27;58.36;100985.22;5019198;28;20040;-71
2022/05/11 09:59:37;;;;;;;1.67;0.80;;;;;;;19.38;58.20;100982.53;4999263;28;20046;-71
2022/05/11 10:02:31;;;;;;;3.63;0.80;;;;;;;19.37;56.66;100988.88;5014110;28;20111;-70
2022/05/11 10:05:03;;;;;;;1.77;0.60;;;;;;;19.33;57.23;100990.09;5011423;28;20030;-70
2022/05/11 10:07:33;;;;;;;3.38;1.13;;;;;;;19.23;57.38;100981.09;4995826;28;20048;-70
2022/05/11 10:10:05;;;;;;;1.73;0.90;;;;;;;19.25;57.67;100987.19;4991619;28;20045;-70
2022/05/11 10:12:36;;;;;;;1.65;0.70;;;;;;;19.21;56.37;100985.72;5006046;28;20041;-70
2022/05/11 10:23:35;;;;;;;4.97;1.33;;;;;;;18.32;59.94;100990.69;4992543;28;20462;-68
2022/05/11 10:26:05;;;;;;;4.35;1.30;;;;;;;18.12;61.27;100999.38;4990747;28;20036;-68
2022/05/11 10:28:45;;;;;;;6.68;1.40;;;;;;;18.16;60.89;100984.78;5011899;28;20053;-67
2022/05/11 10:31:13;;;;;;;7.45;1.40;;;;;;;18.09;63.17;100984.38;5011862;28;20038;-68
2022/05/11 10:34:38;;;;;;;3.22;1.40;;;;;;;18.07;62.64;100980.97;5011882;28;20116;-67
2022/05/11 10:37:20;;;;;;;3.08;1.27;;;;;;;18.07;62.27;100985.50;4984239;28;20040;-68
2022/05/11 10:40:17;;;;;;;4.65;1.40;;;;;;;18.05;63.30;100986.44;4952390;28;20485;-67
2022/05/11 10:43:04;;;;;;;4.35;1.30;;;;;;;18.02;63.49;100983.97;4957905;28;20136;-67
2022/05/11 10:45:42;;;;;;;2.35;1.00;;;;;;;18.12;62.07;100989.53;4971507;28;20233;-71
2022/05/11 10:48:08;;;;;;;4.88;1.25;;;;;;;18.33;60.78;100988.88;4970445;28;20425;-71
2022/05/11 10:50:48;;;;;;;3.00;1.13;;;;;;;18.68;58.65;100973.72;4984510;28;20487;-70
2022/05/11 10:53:32;;;;;;;5.32;1.40;;;;;;;18.96;60.20;100985.81;4972159;28;20042;-70
2022/05/11 10:56:21;;;;;;;4.63;1.13;;;;;;;19.11;58.22;100986.47;4984308;28;20042;-69
2022/05/11 10:59:17;;;;;;;6.40;1.10;;;;;;;19.30;59.25;100979.63;4981305;28;20128;-69
2022/05/11 11:01:57;;;;;;;4.10;1.35;;;;;;;19.47;59.04;100986.31;4991139;28;20063;-69
2022/05/11 11:04:50;;;;;;;4.75;1.83;;;;;;;19.44;61.53;100983.03;4990595;28;20037;-70
2022/05/11 11:07:22;;;;;;;;;;;;;;;19.46;61.64;100970.31;5010137;28;20076;-70
2022/05/11 11:10:18;;;;;;;5.28;2.13;;;;;;;19.55;63.05;100982.97;5014477;28;19921;-70
2022/05/11 11:12:54;;;;;;;3.70;2.20;;;;;;;19.45;60.58;100968.63;4981804;28;20040;-70
2022/05/11 11:15:26;;;;;;;7.25;2.38;;;;;;;19.14;62.44;100969.25;4989494;28;20134;-70
2022/05/11 11:17:54;;;;;;;5.75;2.53;;;;;;;18.86;63.07;100985.69;5014258;28;20387;-70
2022/05/11 11:20:20;;;;;;;3.35;1.65;;;;;;;18.66;63.05;100981.03;5025699;28;20098;-70
2022/05/11 11:23:04;;;;;;;6.00;2.08;;;;;;;18.63;62.88;100982.09;5031156;28;20060;-71
2022/05/11 11:25:52;;;;;;;6.72;2.47;;;;;;;18.55;63.94;100972.00;5031638;28;20036;-69
2022/05/11 11:28:26;;;;;;;5.60;2.13;;;;;;;18.67;64.02;100977.34;5020633;28;20033;-70
2022/05/11 11:30:57;;;;;;;6.20;2.13;;;;;;;18.89;63.63;100967.66;5005752;28;20038;-72
2022/05/11 11:33:24;;;;;;;5.82;2.03;;;;;;;19.17;63.74;100971.69;5013138;28;20044;-71
2022/05/11 11:35:57;;;;;;;5.32;2.28;;;;;;;19.29;63.57;100972.56;5013944;28;20103;-72
2022/05/11 11:38:47;;;;;;;6.20;1.90;;;;;;;19.20;63.01;100976.81;5030452;28;20704;-72
2022/05/11 11:41:23;;;;;;;5.82;1.90;;;;;;;19.14;62.13;100970.09;5004354;28;20044;-72
2022/05/11 11:43:49;;;;;;;6.35;2.28;;;;;;;18.98;63.48;100972.28;5025868;28;20516;-72
2022/05/11 11:46:26;;;;;;;4.90;2.13;;;;;;;18.65;61.76;100972.13;5007556;28;20045;-73
2022/05/11 11:49:10;;;;;;;6.82;2.30;;;;;;;18.38;63.13;100967.06;5029528;28;20136;-71
2022/05/11 11:51:56;;;;;;;6.25;2.30;;;;;;;18.23;64.00;100969.97;4991978;28;20060;-72
2022/05/11 11:54:37;;;;;;;5.18;1.83;;;;;;;17.92;61.67;100974.91;5024695;28;20395;-72
2022/05/11 11:57:12;;;;;;;4.55;1.65;;;;;;;17.68;62.61;100970.41;5025619;28;20658;-72
2022/05/11 12:00:24;;;;;;;4.63;1.50;;;;;;;17.55;61.72;100958.91;5011483;28;20044;-72
2022/05/11 12:02:50;;;;;;;3.58;1.70;;;;;;;17.74;63.24;100958.41;5011563;28;20160;-72